sensor_id;sensor_type;location;lat;lon;timestamp;pressure;altitude;pressure_sealevel;temperature
73734;BMP280;62039;50.000;9.064;2024-02-21T00:01:40;101252.38;;;8.30
73734;BMP280;62039;50.000;9.064;2024-02-21T00:04:07;101254.16;;;8.29
73734;BMP280;62039;50.000;9.064;2024-02-21T00:06:36;101239.38;;;8.30
73734;BMP280;62039;50.000;9.064;2024-02-21T00:09:03;101227.28;;;8.29
73734;BMP280;62039;50.000;9.064;2024-02-21T00:11:30;101235.22;;;8.27
73734;BMP280;62039;50.000;9.064;2024-02-21T00:13:57;101226.47;;;8.28
73734;BMP280;62039;50.000;9.064;2024-02-21T00:16:24;101219.59;;;8.27
73734;BMP280;62039;50.000;9.064;2024-02-21T00:18:51;101206.69;;;8.25
73734;BMP280;62039;50.000;9.064;2024-02-21T00:21:18;101198.06;;;8.25
73734;BMP280;62039;50.000;9.064;2024-02-21T00:23:48;101209.28;;;8.25
73734;BMP280;62039;50.000;9.064;2024-02-21T00:26:15;101220.66;;;8.24
73734;BMP280;62039;50.000;9.064;2024-02-21T00:28:42;101216.41;;;8.23
73734;BMP280;62039;50.000;9.064;2024-02-21T00:31:09;101220.78;;;8.23
73734;BMP280;62039;50.000;9.064;2024-02-21T00:33:36;101221.59;;;8.23
73734;BMP280;62039;50.000;9.064;2024-02-21T00:36:04;101227.63;;;8.24
73734;BMP280;62039;50.000;9.064;2024-02-21T00:38:31;101220.66;;;8.24
73734;BMP280;62039;50.000;9.064;2024-02-21T00:41:00;101219.81;;;8.24
73734;BMP280;62039;50.000;9.064;2024-02-21T00:43:29;101207.63;;;8.24
73734;BMP280;62039;50.000;9.064;2024-02-21T00:45:56;101212.84;;;8.24
73734;BMP280;62039;50.000;9.064;2024-02-21T00:48:23;101194.63;;;8.24
73734;BMP280;62039;50.000;9.064;2024-02-21T00:50:50;101192.03;;;8.24
73734;BMP280;62039;50.000;9.064;2024-02-21T00:53:17;101179.00;;;8.24
73734;BMP280;62039;50.000;9.064;2024-02-21T00:55:44;101161.72;;;8.23
73734;BMP280;62039;50.000;9.064;2024-02-21T00:58:13;101167.19;;;8.20
73734;BMP280;62039;50.000;9.064;2024-02-21T01:00:40;101162.09;;;8.19
73734;BMP280;62039;50.000;9.064;2024-02-21T01:03:07;101158.78;;;8.17
73734;BMP280;62039;50.000;9.064;2024-02-21T01:05:34;101157.03;;;8.17
73734;BMP280;62039;50.000;9.064;2024-02-21T01:08:02;101142.50;;;8.15
73734;BMP280;62039;50.000;9.064;2024-02-21T01:10:29;101144.28;;;8.14
73734;BMP280;62039;50.000;9.064;2024-02-21T01:12:56;101129.59;;;8.13
73734;BMP280;62039;50.000;9.064;2024-02-21T01:15:25;101139.19;;;8.13
73734;BMP280;62039;50.000;9.064;2024-02-21T01:17:52;101135.88;;;8.11
73734;BMP280;62039;50.000;9.064;2024-02-21T01:20:19;101126.28;;;8.11
73734;BMP280;62039;50.000;9.064;2024-02-21T01:22:46;101144.63;;;8.10
73734;BMP280;62039;50.000;9.064;2024-02-21T01:25:13;101140.25;;;8.10
73734;BMP280;62039;50.000;9.064;2024-02-21T01:27:40;101128.22;;;8.09
73734;BMP280;62039;50.000;9.064;2024-02-21T01:30:08;101141.91;;;8.11
73734;BMP280;62039;50.000;9.064;2024-02-21T01:32:38;101141.22;;;8.09
73734;BMP280;62039;50.000;9.064;2024-02-21T01:35:06;101141.22;;;8.09
73734;BMP280;62039;50.000;9.064;2024-02-21T01:37:33;101137.66;;;8.10
73734;BMP280;62039;50.000;9.064;2024-02-21T01:40:00;101145.59;;;8.09
73734;BMP280;62039;50.000;9.064;2024-02-21T01:42:27;101141.22;;;8.09
73734;BMP280;62039;50.000;9.064;2024-02-21T01:44:54;101126.56;;;8.08
73734;BMP280;62039;50.000;9.064;2024-02-21T01:47:20;101136.13;;;8.08
73734;BMP280;62039;50.000;9.064;2024-02-21T01:49:50;101140.50;;;8.07
73734;BMP280;62039;50.000;9.064;2024-02-21T01:52:17;101145.72;;;8.07
73734;BMP280;62039;50.000;9.064;2024-02-21T01:54:46;101137.91;;;8.07
73734;BMP280;62039;50.000;9.064;2024-02-21T01:57:14;101123.25;;;8.06
73734;BMP280;62039;50.000;9.064;2024-02-21T01:59:41;101126.66;;;8.07
73734;BMP280;62039;50.000;9.064;2024-02-21T02:02:08;101111.19;;;8.05
73734;BMP280;62039;50.000;9.064;2024-02-21T02:04:37;101110.34;;;8.05
73734;BMP280;62039;50.000;9.064;2024-02-21T02:07:07;101108.69;;;8.04
73734;BMP280;62039;50.000;9.064;2024-02-21T02:09:34;101115.66;;;8.03
73734;BMP280;62039;50.000;9.064;2024-02-21T02:12:02;101107.06;;;8.03
73734;BMP280;62039;50.000;9.064;2024-02-21T02:14:29;101109.66;;;8.03
73734;BMP280;62039;50.000;9.064;2024-02-21T02:16:55;101111.44;;;8.02
73734;BMP280;62039;50.000;9.064;2024-02-21T02:19:22;101110.63;;;8.02
73734;BMP280;62039;50.000;9.064;2024-02-21T02:21:51;101115.00;;;8.01
73734;BMP280;62039;50.000;9.064;2024-02-21T02:24:24;101116.66;;;8.02
73734;BMP280;62039;50.000;9.064;2024-02-21T02:26:51;101113.34;;;8.00
73734;BMP280;62039;50.000;9.064;2024-02-21T02:29:18;101111.69;;;7.99
73734;BMP280;62039;50.000;9.064;2024-02-21T02:31:45;101103.03;;;7.99
73734;BMP280;62039;50.000;9.064;2024-02-21T02:34:12;101100.44;;;7.99
73734;BMP280;62039;50.000;9.064;2024-02-21T02:36:39;101105.66;;;7.99
73734;BMP280;62039;50.000;9.064;2024-02-21T02:39:06;101091.91;;;7.97
73734;BMP280;62039;50.000;9.064;2024-02-21T02:41:37;101089.47;;;7.95
73734;BMP280;62039;50.000;9.064;2024-02-21T02:44:04;101091.34;;;7.93
73734;BMP280;62039;50.000;9.064;2024-02-21T02:46:31;101091.25;;;7.95
73734;BMP280;62039;50.000;9.064;2024-02-21T02:48:58;101080.94;;;7.93
73734;BMP280;62039;50.000;9.064;2024-02-21T02:51:25;101074.09;;;7.92
73734;BMP280;62039;50.000;9.064;2024-02-21T02:53:52;101063.69;;;7.92
73734;BMP280;62039;50.000;9.064;2024-02-21T02:56:19;101062.84;;;7.92
73734;BMP280;62039;50.000;9.064;2024-02-21T02:58:48;101059.44;;;7.91
73734;BMP280;62039;50.000;9.064;2024-02-21T03:01:15;101054.34;;;7.90
73734;BMP280;62039;50.000;9.064;2024-02-21T03:03:43;101044.09;;;7.88
73734;BMP280;62039;50.000;9.064;2024-02-21T03:06:10;101049.28;;;7.88
73734;BMP280;62039;50.000;9.064;2024-02-21T03:08:37;101053.78;;;7.86
73734;BMP280;62039;50.000;9.064;2024-02-21T03:11:04;101043.38;;;7.86
73734;BMP280;62039;50.000;9.064;2024-02-21T03:13:31;101044.31;;;7.85
73734;BMP280;62039;50.000;9.064;2024-02-21T03:16:00;101047.03;;;7.83
73734;BMP280;62039;50.000;9.064;2024-02-21T03:18:27;101047.19;;;7.82
73734;BMP280;62039;50.000;9.064;2024-02-21T03:20:54;101059.38;;;7.81
73734;BMP280;62039;50.000;9.064;2024-02-21T03:23:21;101049.91;;;7.80
73734;BMP280;62039;50.000;9.064;2024-02-21T03:25:48;101039.63;;;7.79
73734;BMP280;62039;50.000;9.064;2024-02-21T03:28:16;101033.59;;;7.78
73734;BMP280;62039;50.000;9.064;2024-02-21T03:30:43;101034.66;;;7.76
73734;BMP280;62039;50.000;9.064;2024-02-21T03:33:12;101026.84;;;7.76
73734;BMP280;62039;50.000;9.064;2024-02-21T03:35:39;101033.03;;;7.75
73734;BMP280;62039;50.000;9.064;2024-02-21T03:38:06;101021.91;;;7.73
73734;BMP280;62039;50.000;9.064;2024-02-21T03:40:33;101024.63;;;7.71
73734;BMP280;62039;50.000;9.064;2024-02-21T03:43:00;101019.53;;;7.70
73734;BMP280;62039;50.000;9.064;2024-02-21T03:45:27;101013.66;;;7.68
73734;BMP280;62039;50.000;9.064;2024-02-21T03:47:54;101007.75;;;7.66
73734;BMP280;62039;50.000;9.064;2024-02-21T03:50:24;101001.84;;;7.64
73734;BMP280;62039;50.000;9.064;2024-02-21T03:52:51;101014.16;;;7.62
73734;BMP280;62039;50.000;9.064;2024-02-21T03:55:18;101009.09;;;7.60
73734;BMP280;62039;50.000;9.064;2024-02-21T03:57:45;101020.44;;;7.59
73734;BMP280;62039;50.000;9.064;2024-02-21T04:00:12;101015.34;;;7.58
73734;BMP280;62039;50.000;9.064;2024-02-21T04:02:39;101013.84;;;7.55
73734;BMP280;62039;50.000;9.064;2024-02-21T04:05:07;101008.75;;;7.54
73734;BMP280;62039;50.000;9.064;2024-02-21T04:07:37;101010.53;;;7.53
73734;BMP280;62039;50.000;9.064;2024-02-21T04:10:05;101007.19;;;7.51
73734;BMP280;62039;50.000;9.064;2024-02-21T04:12:32;101015.09;;;7.50
73734;BMP280;62039;50.000;9.064;2024-02-21T04:14:58;101013.47;;;7.49
73734;BMP280;62039;50.000;9.064;2024-02-21T04:17:25;101024.81;;;7.48
73734;BMP280;62039;50.000;9.064;2024-02-21T04:20:02;101015.34;;;7.46
73734;BMP280;62039;50.000;9.064;2024-02-21T04:22:29;101020.69;;;7.45
73734;BMP280;62039;50.000;9.064;2024-02-21T04:24:59;101025.88;;;7.45
73734;BMP280;62039;50.000;9.064;2024-02-21T04:27:26;101019.13;;;7.42
73734;BMP280;62039;50.000;9.064;2024-02-21T04:29:53;101017.50;;;7.41
73734;BMP280;62039;50.000;9.064;2024-02-21T04:32:20;101010.66;;;7.40
73734;BMP280;62039;50.000;9.064;2024-02-21T04:34:47;101003.81;;;7.39
73734;BMP280;62039;50.000;9.064;2024-02-21T04:37:14;100999.53;;;7.38
73734;BMP280;62039;50.000;9.064;2024-02-21T04:39:41;100993.63;;;7.36
73734;BMP280;62039;50.000;9.064;2024-02-21T04:42:10;100982.41;;;7.36
73734;BMP280;62039;50.000;9.064;2024-02-21T04:44:37;100975.59;;;7.35
73734;BMP280;62039;50.000;9.064;2024-02-21T04:47:05;100962.72;;;7.33
73734;BMP280;62039;50.000;9.064;2024-02-21T04:49:32;100964.03;;;7.28
73734;BMP280;62039;50.000;9.064;2024-02-21T04:51:59;100957.28;;;7.25
73734;BMP280;62039;50.000;9.064;2024-02-21T04:54:26;100954.94;;;7.22
73734;BMP280;62039;50.000;9.064;2024-02-21T04:56:53;100943.03;;;7.20
73734;BMP280;62039;50.000;9.064;2024-02-21T04:59:22;100945.03;;;7.16
73734;BMP280;62039;50.000;9.064;2024-02-21T05:01:49;100940.09;;;7.13
73734;BMP280;62039;50.000;9.064;2024-02-21T05:04:16;100924.72;;;7.10
73734;BMP280;62039;50.000;9.064;2024-02-21T05:06:43;100932.63;;;7.08
73734;BMP280;62039;50.000;9.064;2024-02-21T05:09:10;100938.81;;;7.07
73734;BMP280;62039;50.000;9.064;2024-02-21T05:11:37;100937.28;;;7.05
73734;BMP280;62039;50.000;9.064;2024-02-21T05:14:05;100936.56;;;7.03
73734;BMP280;62039;50.000;9.064;2024-02-21T05:16:34;100944.34;;;7.03
73734;BMP280;62039;50.000;9.064;2024-02-21T05:19:02;100934.91;;;7.02
73734;BMP280;62039;50.000;9.064;2024-02-21T05:21:29;100929.97;;;6.99
73734;BMP280;62039;50.000;9.064;2024-02-21T05:23:55;100929.25;;;6.97
73734;BMP280;62039;50.000;9.064;2024-02-21T05:26:23;100930.09;;;6.97
73734;BMP280;62039;50.000;9.064;2024-02-21T05:28:51;100920.78;;;6.95
73734;BMP280;62039;50.000;9.064;2024-02-21T05:31:18;100935.53;;;6.94
73734;BMP280;62039;50.000;9.064;2024-02-21T05:33:48;100938.97;;;6.95
73734;BMP280;62039;50.000;9.064;2024-02-21T05:36:15;100947.81;;;6.92
73734;BMP280;62039;50.000;9.064;2024-02-21T05:38:42;100940.03;;;6.92
73734;BMP280;62039;50.000;9.064;2024-02-21T05:41:09;100943.56;;;6.91
73734;BMP280;62039;50.000;9.064;2024-02-21T05:43:38;100943.56;;;6.91
73734;BMP280;62039;50.000;9.064;2024-02-21T05:46:05;100948.88;;;6.90
73734;BMP280;62039;50.000;9.064;2024-02-21T05:48:32;100958.31;;;6.91
73734;BMP280;62039;50.000;9.064;2024-02-21T05:51:07;100960.19;;;6.89
73734;BMP280;62039;50.000;9.064;2024-02-21T05:53:34;100970.59;;;6.89
73734;BMP280;62039;50.000;9.064;2024-02-21T05:56:01;100962.00;;;6.88
73734;BMP280;62039;50.000;9.064;2024-02-21T05:58:28;100962.81;;;6.89
73734;BMP280;62039;50.000;9.064;2024-02-21T06:00:55;100970.59;;;6.89
73734;BMP280;62039;50.000;9.064;2024-02-21T06:03:22;100966.38;;;6.88
73734;BMP280;62039;50.000;9.064;2024-02-21T06:05:49;100957.59;;;6.89
73734;BMP280;62039;50.000;9.064;2024-02-21T06:08:19;100950.78;;;6.88
73734;BMP280;62039;50.000;9.064;2024-02-21T06:10:46;100943.00;;;6.88
73734;BMP280;62039;50.000;9.064;2024-02-21T06:13:13;100935.19;;;6.88
73734;BMP280;62039;50.000;9.064;2024-02-21T06:15:40;100926.44;;;6.89
73734;BMP280;62039;50.000;9.064;2024-02-21T06:18:07;100934.22;;;6.89
73734;BMP280;62039;50.000;9.064;2024-02-21T06:20:34;100931.63;;;6.89
73734;BMP280;62039;50.000;9.064;2024-02-21T06:23:01;100932.47;;;6.89
73734;BMP280;62039;50.000;9.064;2024-02-21T06:25:30;100933.28;;;6.90
73734;BMP280;62039;50.000;9.064;2024-02-21T06:27:57;100928.91;;;6.90
73734;BMP280;62039;50.000;9.064;2024-02-21T06:30:24;100923.72;;;6.90
73734;BMP280;62039;50.000;9.064;2024-02-21T06:32:51;100919.34;;;6.91
73734;BMP280;62039;50.000;9.064;2024-02-21T06:35:19;100916.66;;;6.92
73734;BMP280;62039;50.000;9.064;2024-02-21T06:37:45;100910.63;;;6.92
73734;BMP280;62039;50.000;9.064;2024-02-21T06:40:13;100907.09;;;6.93
73734;BMP280;62039;50.000;9.064;2024-02-21T06:42:42;100915.59;;;6.95
73734;BMP280;62039;50.000;9.064;2024-02-21T06:45:09;100913.94;;;6.94
73734;BMP280;62039;50.000;9.064;2024-02-21T06:47:37;100908.59;;;6.95
73734;BMP280;62039;50.000;9.064;2024-02-21T06:50:05;100908.59;;;6.95
73734;BMP280;62039;50.000;9.064;2024-02-21T06:52:32;100914.75;;;6.94
73734;BMP280;62039;50.000;9.064;2024-02-21T06:54:59;100910.38;;;6.95
73734;BMP280;62039;50.000;9.064;2024-02-21T06:57:26;100902.44;;;6.96
73734;BMP280;62039;50.000;9.064;2024-02-21T06:59:55;100903.28;;;6.97
73734;BMP280;62039;50.000;9.064;2024-02-21T07:02:22;100894.81;;;6.95
73734;BMP280;62039;50.000;9.064;2024-02-21T07:04:49;100888.78;;;6.94
73734;BMP280;62039;50.000;9.064;2024-02-21T07:07:17;100882.75;;;6.94
73734;BMP280;62039;50.000;9.064;2024-02-21T07:09:44;100881.94;;;6.93
73734;BMP280;62039;50.000;9.064;2024-02-21T07:12:11;100888.78;;;6.94
73734;BMP280;62039;50.000;9.064;2024-02-21T07:14:38;100882.75;;;6.94
73734;BMP280;62039;50.000;9.064;2024-02-21T07:17:07;100887.00;;;6.95
73734;BMP280;62039;50.000;9.064;2024-02-21T07:19:34;100902.59;;;6.95
73734;BMP280;62039;50.000;9.064;2024-02-21T07:22:01;100899.03;;;6.96
73734;BMP280;62039;50.000;9.064;2024-02-21T07:24:28;100897.97;;;6.98
73734;BMP280;62039;50.000;9.064;2024-02-21T07:26:55;100894.31;;;7.01
73734;BMP280;62039;50.000;9.064;2024-02-21T07:29:22;100885.53;;;7.02
73734;BMP280;62039;50.000;9.064;2024-02-21T07:31:49;100883.53;;;7.05
73734;BMP280;62039;50.000;9.064;2024-02-21T07:34:19;100875.63;;;7.07
73734;BMP280;62039;50.000;9.064;2024-02-21T07:36:46;100869.50;;;7.08
73734;BMP280;62039;50.000;9.064;2024-02-21T07:39:13;100876.31;;;7.09
73734;BMP280;62039;50.000;9.064;2024-02-21T07:41:40;100881.28;;;7.12
73734;BMP280;62039;50.000;9.064;2024-02-21T07:44:07;100881.03;;;7.15
73734;BMP280;62039;50.000;9.064;2024-02-21T07:46:34;100876.41;;;7.19
73734;BMP280;62039;50.000;9.064;2024-02-21T07:49:01;100870.13;;;7.21
73734;BMP280;62039;50.000;9.064;2024-02-21T07:51:30;100870.69;;;7.25
73734;BMP280;62039;50.000;9.064;2024-02-21T07:53:57;100875.66;;;7.28
73734;BMP280;62039;50.000;9.064;2024-02-21T07:56:27;100875.28;;;7.32
73734;BMP280;62039;50.000;9.064;2024-02-21T07:58:54;100867.25;;;7.35
73734;BMP280;62039;50.000;9.064;2024-02-21T08:01:21;100869.44;;;7.40
73734;BMP280;62039;50.000;9.064;2024-02-21T08:03:48;100876.84;;;7.44
73734;BMP280;62039;50.000;9.064;2024-02-21T08:06:15;100871.16;;;7.51
73734;BMP280;62039;50.000;9.064;2024-02-21T08:08:45;100868.06;;;7.57
73734;BMP280;62039;50.000;9.064;2024-02-21T08:11:12;100870.16;;;7.63
73734;BMP280;62039;50.000;9.064;2024-02-21T08:13:39;100864.47;;;7.69
73734;BMP280;62039;50.000;9.064;2024-02-21T08:16:06;100857.78;;;7.76
73734;BMP280;62039;50.000;9.064;2024-02-21T08:18:33;100865.09;;;7.82
73734;BMP280;62039;50.000;9.064;2024-02-21T08:21:00;100865.41;;;7.89
73734;BMP280;62039;50.000;9.064;2024-02-21T08:23:27;100858.84;;;7.94
73734;BMP280;62039;50.000;9.064;2024-02-21T08:25:57;100862.72;;;8.00
73734;BMP280;62039;50.000;9.064;2024-02-21T08:28:24;100862.31;;;8.04
73734;BMP280;62039;50.000;9.064;2024-02-21T08:30:50;100857.69;;;8.08
73734;BMP280;62039;50.000;9.064;2024-02-21T08:33:18;100856.44;;;8.12
73734;BMP280;62039;50.000;9.064;2024-02-21T08:35:45;100849.88;;;8.17
73734;BMP280;62039;50.000;9.064;2024-02-21T08:38:12;100834.03;;;8.20
73734;BMP280;62039;50.000;9.064;2024-02-21T08:40:39;100836.34;;;8.23
73734;BMP280;62039;50.000;9.064;2024-02-21T08:43:08;100836.22;;;8.25
73734;BMP280;62039;50.000;9.064;2024-02-21T08:45:35;100837.03;;;8.25
73734;BMP280;62039;50.000;9.064;2024-02-21T08:48:03;100828.28;;;8.27
73734;BMP280;62039;50.000;9.064;2024-02-21T08:50:30;100828.03;;;8.30
73734;BMP280;62039;50.000;9.064;2024-02-21T08:52:58;100836.38;;;8.33
73734;BMP280;62039;50.000;9.064;2024-02-21T08:55:25;100832.69;;;8.36
73734;BMP280;62039;50.000;9.064;2024-02-21T08:57:52;100841.19;;;8.38
73734;BMP280;62039;50.000;9.064;2024-02-21T09:00:21;100831.59;;;8.38
73734;BMP280;62039;50.000;9.064;2024-02-21T09:02:48;100822.97;;;8.38
73734;BMP280;62039;50.000;9.064;2024-02-21T09:05:15;100827.34;;;8.37
73734;BMP280;62039;50.000;9.064;2024-02-21T09:07:43;100832.41;;;8.39
73734;BMP280;62039;50.000;9.064;2024-02-21T09:10:10;100822.84;;;8.39
73734;BMP280;62039;50.000;9.064;2024-02-21T09:12:36;100820.09;;;8.41
73734;BMP280;62039;50.000;9.064;2024-02-21T09:15:05;100814.78;;;8.42
73734;BMP280;62039;50.000;9.064;2024-02-21T09:17:34;100808.44;;;8.45
73734;BMP280;62039;50.000;9.064;2024-02-21T09:20:02;100808.31;;;8.46
73734;BMP280;62039;50.000;9.064;2024-02-21T09:22:29;100799.56;;;8.47
73734;BMP280;62039;50.000;9.064;2024-02-21T09:24:56;100798.47;;;8.50
73734;BMP280;62039;50.000;9.064;2024-02-21T09:27:23;100803.53;;;8.51
73734;BMP280;62039;50.000;9.064;2024-02-21T09:29:50;100797.38;;;8.52
73734;BMP280;62039;50.000;9.064;2024-02-21T09:32:18;100796.28;;;8.55
73734;BMP280;62039;50.000;9.064;2024-02-21T09:34:47;100787.53;;;8.56
73734;BMP280;62039;50.000;9.064;2024-02-21T09:37:14;100787.66;;;8.54
73734;BMP280;62039;50.000;9.064;2024-02-21T09:39:41;100783.25;;;8.55
73734;BMP280;62039;50.000;9.064;2024-02-21T09:42:11;100783.13;;;8.56
73734;BMP280;62039;50.000;9.064;2024-02-21T09:44:38;100779.72;;;8.56
73734;BMP280;62039;50.000;9.064;2024-02-21T09:47:07;100778.72;;;8.57
73734;BMP280;62039;50.000;9.064;2024-02-21T09:49:36;100782.84;;;8.59
73734;BMP280;62039;50.000;9.064;2024-02-21T09:52:07;100781.91;;;8.60
73734;BMP280;62039;50.000;9.064;2024-02-21T09:54:34;100782.47;;;8.64
73734;BMP280;62039;50.000;9.064;2024-02-21T09:57:02;100785.75;;;8.66
73734;BMP280;62039;50.000;9.064;2024-02-21T09:59:31;100786.31;;;8.70
73734;BMP280;62039;50.000;9.064;2024-02-21T10:01:58;100780.81;;;8.73
73734;BMP280;62039;50.000;9.064;2024-02-21T10:04:25;100779.88;;;8.74
73734;BMP280;62039;50.000;9.064;2024-02-21T10:06:53;100776.31;;;8.75
73734;BMP280;62039;50.000;9.064;2024-02-21T10:09:24;100779.59;;;8.77
73734;BMP280;62039;50.000;9.064;2024-02-21T10:11:51;100771.63;;;8.78
73734;BMP280;62039;50.000;9.064;2024-02-21T10:14:18;100772.31;;;8.80
73734;BMP280;62039;50.000;9.064;2024-02-21T10:16:46;100772.19;;;8.82
73734;BMP280;62039;50.000;9.064;2024-02-21T10:19:17;100768.47;;;8.84
73734;BMP280;62039;50.000;9.064;2024-02-21T10:21:59;100758.75;;;8.86
73734;BMP280;62039;50.000;9.064;2024-02-21T10:24:29;100764.53;;;8.90
73734;BMP280;62039;50.000;9.064;2024-02-21T10:27:01;100743.13;;;8.96
73734;BMP280;62039;50.000;9.064;2024-02-21T10:29:28;100739.94;;;9.02
73734;BMP280;62039;50.000;9.064;2024-02-21T10:32:04;100737.59;;;9.09
73734;BMP280;62039;50.000;9.064;2024-02-21T10:34:31;100742.53;;;9.12
73734;BMP280;62039;50.000;9.064;2024-02-21T10:37:00;100732.91;;;9.12
73734;BMP280;62039;50.000;9.064;2024-02-21T10:39:31;100728.41;;;9.14
73734;BMP280;62039;50.000;9.064;2024-02-21T10:42:00;100719.47;;;9.17
73734;BMP280;62039;50.000;9.064;2024-02-21T10:44:29;100712.31;;;9.19
73734;BMP280;62039;50.000;9.064;2024-02-21T10:46:57;100699.97;;;9.21
73734;BMP280;62039;50.000;9.064;2024-02-21T10:49:25;100698.06;;;9.23
73734;BMP280;62039;50.000;9.064;2024-02-21T10:51:54;100690.06;;;9.24
73734;BMP280;62039;50.000;9.064;2024-02-21T10:54:38;100694.19;;;9.27
73734;BMP280;62039;50.000;9.064;2024-02-21T10:57:06;100686.09;;;9.30
73734;BMP280;62039;50.000;9.064;2024-02-21T10:59:34;100683.31;;;9.31
73734;BMP280;62039;50.000;9.064;2024-02-21T11:02:03;100679.63;;;9.34
73734;BMP280;62039;50.000;9.064;2024-02-21T11:04:32;100674.13;;;9.37
73734;BMP280;62039;50.000;9.064;2024-02-21T11:07:01;100667.78;;;9.39
73734;BMP280;62039;50.000;9.064;2024-02-21T11:09:34;100671.78;;;9.43
73734;BMP280;62039;50.000;9.064;2024-02-21T11:12:03;100664.47;;;9.47
73734;BMP280;62039;50.000;9.064;2024-02-21T11:14:30;100660.31;;;9.54
73734;BMP280;62039;50.000;9.064;2024-02-21T11:16:58;100650.16;;;9.61
73734;BMP280;62039;50.000;9.064;2024-02-21T11:19:26;100658.53;;;9.64
73734;BMP280;62039;50.000;9.064;2024-02-21T11:21:55;100648.75;;;9.66
73734;BMP280;62039;50.000;9.064;2024-02-21T11:24:26;100639.81;;;9.69
73734;BMP280;62039;50.000;9.064;2024-02-21T11:26:56;100632.66;;;9.71
73734;BMP280;62039;50.000;9.064;2024-02-21T11:29:23;100630.56;;;9.74
73734;BMP280;62039;50.000;9.064;2024-02-21T11:31:51;100627.50;;;9.79
73734;BMP280;62039;50.000;9.064;2024-02-21T11:34:19;100620.91;;;9.85
73734;BMP280;62039;50.000;9.064;2024-02-21T11:36:47;100617.16;;;9.87
73734;BMP280;62039;50.000;9.064;2024-02-21T11:39:18;100607.91;;;9.93
73734;BMP280;62039;50.000;9.064;2024-02-21T11:41:45;100598.84;;;9.97
73734;BMP280;62039;50.000;9.064;2024-02-21T11:44:15;100595.78;;;10.01
73734;BMP280;62039;50.000;9.064;2024-02-21T11:46:42;100595.47;;;10.04
73734;BMP280;62039;50.000;9.064;2024-02-21T11:49:09;100592.41;;;10.09
73734;BMP280;62039;50.000;9.064;2024-02-21T11:51:38;100585.25;;;10.11
73734;BMP280;62039;50.000;9.064;2024-02-21T11:54:05;100580.53;;;10.14
73734;BMP280;62039;50.000;9.064;2024-02-21T11:56:32;100571.59;;;10.17
73734;BMP280;62039;50.000;9.064;2024-02-21T11:59:01;100570.31;;;10.21
73734;BMP280;62039;50.000;9.064;2024-02-21T12:01:31;100566.59;;;10.24
73734;BMP280;62039;50.000;9.064;2024-02-21T12:03:58;100548.13;;;10.25
73734;BMP280;62039;50.000;9.064;2024-02-21T12:06:25;100546.06;;;10.29
73734;BMP280;62039;50.000;9.064;2024-02-21T12:08:52;100540.38;;;10.33
73734;BMP280;62039;50.000;9.064;2024-02-21T12:11:19;100539.94;;;10.38
73734;BMP280;62039;50.000;9.064;2024-02-21T12:13:47;100525.72;;;10.40
73734;BMP280;62039;50.000;9.064;2024-02-21T12:16:17;100520.06;;;10.45
73734;BMP280;62039;50.000;9.064;2024-02-21T12:18:47;100510.09;;;10.48
73734;BMP280;62039;50.000;9.064;2024-02-21T12:21:15;100519.94;;;10.54
73734;BMP280;62039;50.000;9.064;2024-02-21T12:23:42;100514.44;;;10.57
73734;BMP280;62039;50.000;9.064;2024-02-21T12:26:09;100512.19;;;10.63
73734;BMP280;62039;50.000;9.064;2024-02-21T12:28:36;100502.56;;;10.63
73734;BMP280;62039;50.000;9.064;2024-02-21T12:31:03;100505.00;;;10.65
73734;BMP280;62039;50.000;9.064;2024-02-21T12:33:30;100503.22;;;10.65
73734;BMP280;62039;50.000;9.064;2024-02-21T12:36:00;100496.84;;;10.68
73734;BMP280;62039;50.000;9.064;2024-02-21T12:38:27;100489.84;;;10.68
73734;BMP280;62039;50.000;9.064;2024-02-21T12:40:54;100488.03;;;10.69
73734;BMP280;62039;50.000;9.064;2024-02-21T12:43:22;100481.03;;;10.69
73734;BMP280;62039;50.000;9.064;2024-02-21T12:45:49;100481.03;;;10.69
73734;BMP280;62039;50.000;9.064;2024-02-21T12:48:16;100466.16;;;10.70
73734;BMP280;62039;50.000;9.064;2024-02-21T12:50:49;100455.38;;;10.73
73734;BMP280;62039;50.000;9.064;2024-02-21T12:53:19;100453.78;;;10.72
73734;BMP280;62039;50.000;9.064;2024-02-21T12:55:57;100448.38;;;10.73
73734;BMP280;62039;50.000;9.064;2024-02-21T12:58:24;100438.44;;;10.77
73734;BMP280;62039;50.000;9.064;2024-02-21T13:00:51;100427.84;;;10.78
73734;BMP280;62039;50.000;9.064;2024-02-21T13:03:18;100431.09;;;10.80
73734;BMP280;62039;50.000;9.064;2024-02-21T13:05:45;100432.56;;;10.83
73734;BMP280;62039;50.000;9.064;2024-02-21T13:08:12;100425.56;;;10.83
73734;BMP280;62039;50.000;9.064;2024-02-21T13:10:42;100424.41;;;10.86
73734;BMP280;62039;50.000;9.064;2024-02-21T13:13:09;100416.09;;;10.90
73734;BMP280;62039;50.000;9.064;2024-02-21T13:15:36;100413.97;;;10.94
73734;BMP280;62039;50.000;9.064;2024-02-21T13:18:03;100412.84;;;10.96
73734;BMP280;62039;50.000;9.064;2024-02-21T13:20:31;100415.94;;;11.00
73734;BMP280;62039;50.000;9.064;2024-02-21T13:22:58;100410.41;;;11.03
73734;BMP280;62039;50.000;9.064;2024-02-21T13:25:25;100409.28;;;11.06
73734;BMP280;62039;50.000;9.064;2024-02-21T13:27:55;100398.47;;;11.09
73734;BMP280;62039;50.000;9.064;2024-02-21T13:30:22;100400.94;;;11.10
73734;BMP280;62039;50.000;9.064;2024-02-21T13:32:49;100388.69;;;11.11
73734;BMP280;62039;50.000;9.064;2024-02-21T13:35:16;100387.88;;;11.10
73734;BMP280;62039;50.000;9.064;2024-02-21T13:37:43;100382.63;;;11.10
73734;BMP280;62039;50.000;9.064;2024-02-21T13:40:10;100367.78;;;11.11
73734;BMP280;62039;50.000;9.064;2024-02-21T13:42:37;100366.28;;;11.08
73734;BMP280;62039;50.000;9.064;2024-02-21T13:45:08;100354.19;;;11.07
73734;BMP280;62039;50.000;9.064;2024-02-21T13:47:35;100346.69;;;11.04
73734;BMP280;62039;50.000;9.064;2024-02-21T13:50:03;100348.47;;;11.04
73734;BMP280;62039;50.000;9.064;2024-02-21T13:52:30;100355.50;;;11.03
73734;BMP280;62039;50.000;9.064;2024-02-21T13:54:57;100338.03;;;11.04
73734;BMP280;62039;50.000;9.064;2024-02-21T13:57:24;100338.84;;;11.04
73734;BMP280;62039;50.000;9.064;2024-02-21T13:59:51;100324.13;;;11.03
73734;BMP280;62039;50.000;9.064;2024-02-21T14:02:20;100325.94;;;11.03
73734;BMP280;62039;50.000;9.064;2024-02-21T14:04:48;100320.72;;;11.03
73734;BMP280;62039;50.000;9.064;2024-02-21T14:07:15;100309.44;;;11.02
73734;BMP280;62039;50.000;9.064;2024-02-21T14:09:42;100302.56;;;11.01